Time;durP1;ratioP1;P1;durP2;ratioP2;P2;SDS_P1;SDS_P2;PMS_P1;PMS_P2;Temp;Humidity;BMP_temperature;BMP_pressure;BME280_temperature;BME280_humidity;BME280_pressure;Samples;Min_cycle;Max_cycle;Signal;HPM_P1;HPM_P2
2023/09/25 00:01:12;;;;;;;3.85;2.35;;;;;;;14.78;92.45;102025.00;5057322;28;20044;-67
2023/09/25 00:04:00;;;;;;;4.88;2.50;;;;;;;14.78;92.66;102034.06;5075134;28;20051;-68
2023/09/25 00:06:48;;;;;;;4.07;2.28;;;;;;;14.77;92.45;102028.81;5092402;28;20476;-67
2023/09/25 00:09:36;;;;;;;4.85;2.60;;;;;;;14.76;92.46;102035.41;5036364;28;20090;-67
2023/09/25 00:12:24;;;;;;;4.43;2.35;;;;;;;14.75;92.13;102036.53;5072448;28;20040;-67
2023/09/25 00:15:12;;;;;;;6.13;2.90;;;;;;;14.72;92.06;102031.53;5061577;28;20067;-67
2023/09/25 00:18:00;;;;;;;6.05;2.50;;;;;;;14.71;91.79;102033.47;5073006;28;20052;-67
2023/09/25 00:20:49;;;;;;;5.10;2.55;;;;;;;14.69;91.93;102036.47;5058281;28;20048;-67
2023/09/25 00:23:38;;;;;;;3.13;2.40;;;;;;;14.69;91.53;102032.91;5057105;28;20511;-66
2023/09/25 00:26:26;;;;;;;7.13;2.65;;;;;;;14.69;91.39;102039.22;5072153;28;20040;-66
2023/09/25 00:29:15;;;;;;;4.95;2.53;;;;;;;14.71;90.94;102041.69;5071117;28;20043;-67
2023/09/25 00:32:03;;;;;;;5.40;2.63;;;;;;;14.71;90.60;102030.72;5062449;28;20199;-67
2023/09/25 00:34:51;;;;;;;5.78;2.47;;;;;;;14.69;89.99;102032.91;5076638;28;20179;-67
2023/09/25 00:37:39;;;;;;;4.93;2.50;;;;;;;14.67;90.13;102029.59;5075899;28;20096;-67
2023/09/25 00:40:27;;;;;;;3.00;2.10;;;;;;;14.64;90.04;102032.88;5056428;28;20044;-67
2023/09/25 00:43:15;;;;;;;7.78;2.80;;;;;;;14.62;90.32;102033.16;5071251;28;20178;-67
2023/09/25 00:46:03;;;;;;;5.05;2.70;;;;;;;14.63;89.79;102047.69;5067246;28;20416;-67
2023/09/25 00:48:51;;;;;;;4.60;2.42;;;;;;;14.63;89.31;102040.28;5057434;28;20045;-68
2023/09/25 00:51:40;;;;;;;5.40;2.72;;;;;;;14.61;89.12;102031.50;5042705;28;20496;-67
2023/09/25 00:54:31;;;;;;;5.28;2.78;;;;;;;14.58;88.92;102034.78;5044706;28;20056;-67
2023/09/25 00:57:28;;;;;;;6.50;3.00;;;;;;;14.52;88.96;102037.72;5059573;28;20492;-67
2023/09/25 01:00:17;;;;;;;4.55;2.28;;;;;;;14.52;88.73;102032.22;5055470;28;20041;-67
2023/09/25 01:03:06;;;;;;;5.03;2.55;;;;;;;14.52;88.72;102041.28;5056528;28;20056;-67
2023/09/25 01:05:54;;;;;;;6.55;2.40;;;;;;;14.52;88.60;102038.53;5056935;28;20510;-66
2023/09/25 01:08:43;;;;;;;5.28;2.53;;;;;;;14.51;88.36;102041.56;5057190;28;20067;-67
2023/09/25 01:11:31;;;;;;;3.72;2.50;;;;;;;14.49;88.35;102045.38;5056394;28;20408;-66
2023/09/25 01:14:19;;;;;;;4.28;2.50;;;;;;;14.50;88.54;102046.19;5072123;28;20098;-66
2023/09/25 01:17:07;;;;;;;4.70;2.65;;;;;;;14.49;88.00;102045.38;5030546;28;20083;-67
2023/09/25 01:19:55;;;;;;;5.15;2.40;;;;;;;14.46;88.00;102045.91;5057987;28;20080;-66
2023/09/25 01:22:46;;;;;;;4.03;2.70;;;;;;;14.44;88.19;102047.28;5049424;28;20059;-67
2023/09/25 01:25:34;;;;;;;7.60;2.70;;;;;;;14.43;87.84;102045.59;5080628;28;20081;-68
2023/09/25 01:28:22;;;;;;;4.43;2.47;;;;;;;14.40;87.88;102040.66;5080574;28;20053;-67
2023/09/25 01:31:10;;;;;;;5.35;3.03;;;;;;;14.37;87.94;102039.25;5076287;28;20056;-67
2023/09/25 01:33:58;;;;;;;5.00;2.60;;;;;;;14.34;88.31;102037.06;5046945;28;20078;-68
2023/09/25 01:36:46;;;;;;;5.70;2.83;;;;;;;14.32;88.08;102033.75;5060015;28;20048;-67
2023/09/25 01:39:35;;;;;;;5.07;2.67;;;;;;;14.29;88.23;102034.28;5060173;28;20137;-67
2023/09/25 01:42:24;;;;;;;5.55;2.83;;;;;;;14.30;88.35;102035.94;5060228;28;20048;-67
2023/09/25 01:45:15;;;;;;;4.20;2.58;;;;;;;14.31;87.77;102031.25;5080685;28;20044;-67
2023/09/25 01:48:03;;;;;;;4.22;2.72;;;;;;;14.30;87.77;102035.94;5064006;28;20500;-67
2023/09/25 01:50:51;;;;;;;6.00;2.70;;;;;;;14.28;87.62;102032.63;5059944;28;20511;-67
2023/09/25 01:53:39;;;;;;;6.95;2.80;;;;;;;14.24;87.75;102026.84;5059333;28;20057;-67
2023/09/25 01:56:27;;;;;;;3.63;2.45;;;;;;;14.23;87.79;102033.41;5057754;28;20039;-67
2023/09/25 01:59:15;;;;;;;6.05;2.95;;;;;;;14.21;87.69;102043.81;5086791;28;20121;-68
2023/09/25 02:02:03;;;;;;;4.75;2.97;;;;;;;14.20;87.68;102035.84;5059946;28;20040;-67
2023/09/25 02:04:51;;;;;;;7.95;2.88;;;;;;;14.19;87.29;102032.31;5059436;28;20037;-67
2023/09/25 02:07:40;;;;;;;7.65;2.90;;;;;;;14.20;87.63;102030.38;5073730;28;20512;-67
2023/09/25 02:10:28;;;;;;;3.70;2.53;;;;;;;14.20;87.24;102024.91;5059242;28;20454;-67
2023/09/25 02:13:16;;;;;;;6.20;2.78;;;;;;;14.19;87.14;102029.56;5045715;28;20520;-67
2023/09/25 02:16:04;;;;;;;5.55;2.85;;;;;;;14.18;87.33;102029.81;5069843;28;20521;-67
2023/09/25 02:18:52;;;;;;;5.28;2.67;;;;;;;14.18;87.10;102027.06;5094952;28;20064;-67
2023/09/25 02:21:40;;;;;;;4.53;2.60;;;;;;;14.17;86.97;102026.25;5058757;28;20469;-67
2023/09/25 02:24:28;;;;;;;6.82;3.03;;;;;;;14.17;87.11;102022.69;5058778;28;20046;-67
2023/09/25 02:27:17;;;;;;;5.47;3.00;;;;;;;14.16;87.01;102018.28;5045116;28;20497;-66
2023/09/25 02:30:07;;;;;;;6.72;2.80;;;;;;;14.13;87.38;102010.59;5032318;28;20099;-66
2023/09/25 02:32:55;;;;;;;6.20;3.13;;;;;;;14.13;87.31;102018.81;5046115;28;20045;-66
2023/09/25 02:35:43;;;;;;;5.57;2.90;;;;;;;14.12;87.23;102019.88;5060420;28;20056;-66
2023/09/25 02:38:31;;;;;;;6.10;2.60;;;;;;;14.10;87.17;102022.91;5044327;28;20044;-67
2023/09/25 02:41:20;;;;;;;4.40;2.55;;;;;;;14.09;87.20;102023.16;5045729;28;20036;-66
2023/09/25 02:44:08;;;;;;;4.70;2.47;;;;;;;14.07;87.44;102027.00;5068261;28;20516;-67
2023/09/25 02:46:56;;;;;;;4.32;3.00;;;;;;;14.06;87.51;102019.03;5071863;28;20380;-67
2023/09/25 02:49:44;;;;;;;5.00;2.78;;;;;;;14.03;87.60;102019.56;5044520;28;20127;-67
2023/09/25 02:52:32;;;;;;;6.15;2.65;;;;;;;13.99;87.84;102013.75;5058906;28;20048;-67
2023/09/25 02:55:20;;;;;;;6.35;3.08;;;;;;;13.99;87.85;102029.38;5059294;28;20057;-66
2023/09/25 02:58:09;;;;;;;8.95;3.38;;;;;;;13.97;87.71;102021.41;5038008;28;20137;-66
2023/09/25 03:01:01;;;;;;;7.22;2.97;;;;;;;13.94;88.33;102021.13;5039644;28;20087;-67
2023/09/25 03:03:49;;;;;;;6.55;2.90;;;;;;;13.92;88.25;102018.63;5030984;28;20063;-67
2023/09/25 03:06:37;;;;;;;3.83;2.55;;;;;;;13.91;88.20;102022.47;5078432;28;20070;-67
2023/09/25 03:09:25;;;;;;;4.97;2.75;;;;;;;13.89;88.22;102015.59;5077300;28;20040;-67
2023/09/25 03:12:13;;;;;;;6.40;2.70;;;;;;;13.88;88.30;102025.75;5078482;28;20488;-67
2023/09/25 03:15:04;;;;;;;5.45;2.85;;;;;;;13.89;88.41;102024.63;5063002;28;20066;-67
2023/09/25 03:17:53;;;;;;;5.18;2.75;;;;;;;13.89;88.25;102029.31;5052490;28;20055;-67
2023/09/25 03:20:41;;;;;;;5.00;2.80;;;;;;;13.90;88.02;102031.75;5077331;28;20058;-67
2023/09/25 03:23:29;;;;;;;5.82;2.83;;;;;;;13.88;88.38;102025.75;5091940;28;20044;-67
2023/09/25 03:26:18;;;;;;;5.65;2.90;;;;;;;13.89;88.49;102023.81;5053842;28;20037;-67
2023/09/25 03:29:06;;;;;;;4.72;2.70;;;;;;;13.87;88.62;102017.78;5037966;28;20048;-67
2023/09/25 03:31:54;;;;;;;4.60;2.85;;;;;;;13.86;88.52;102019.69;5037265;28;20061;-67
2023/09/25 03:34:42;;;;;;;4.47;2.67;;;;;;;13.85;88.67;102012.53;5049059;28;20119;-68
2023/09/25 03:37:30;;;;;;;6.55;2.90;;;;;;;13.83;88.75;102009.25;5059098;28;20045;-67
2023/09/25 03:40:19;;;;;;;7.75;2.85;;;;;;;13.82;88.58;102024.03;5058227;28;20412;-66
2023/09/25 03:43:07;;;;;;;5.80;2.80;;;;;;;13.81;88.98;102025.13;5056631;28;20044;-67
2023/09/25 03:45:56;;;;;;;6.38;3.00;;;;;;;13.79;88.99;102021.81;5091468;28;20101;-68
2023/09/25 03:48:44;;;;;;;6.93;3.20;;;;;;;13.79;89.24;102021.81;5077489;28;20048;-68
2023/09/25 03:51:33;;;;;;;5.43;2.55;;;;;;;13.79;89.35;102030.84;5091798;28;20044;-67
2023/09/25 03:54:21;;;;;;;5.30;2.92;;;;;;;13.78;88.98;102023.75;5068172;28;20041;-67
2023/09/25 03:57:09;;;;;;;4.35;2.88;;;;;;;13.78;89.19;102033.84;5058246;28;20048;-67
2023/09/25 03:59:57;;;;;;;5.13;2.70;;;;;;;13.78;89.30;102033.84;5057540;28;20520;-67
2023/09/25 04:02:45;;;;;;;4.63;2.60;;;;;;;13.78;89.31;102031.09;5069523;28;20440;-67
2023/09/25 04:05:34;;;;;;;5.75;2.78;;;;;;;13.76;89.42;102028.66;5021927;28;20551;-67
2023/09/25 04:08:22;;;;;;;8.25;2.72;;;;;;;13.74;89.29;102032.75;5050511;28;20128;-66
2023/09/25 04:11:11;;;;;;;4.80;2.67;;;;;;;13.71;89.63;102025.00;5036298;28;20075;-67
2023/09/25 04:14:00;;;;;;;5.05;2.90;;;;;;;13.70;89.74;102028.84;5033269;28;20077;-67
2023/09/25 04:16:48;;;;;;;5.88;2.72;;;;;;;13.69;89.99;102036.25;5057616;28;20563;-67
2023/09/25 04:19:37;;;;;;;5.13;2.85;;;;;;;13.71;89.69;102034.09;5072447;28;20445;-67
2023/09/25 04:22:25;;;;;;;4.38;2.80;;;;;;;13.70;89.98;102039.81;5056493;28;20397;-66
2023/09/25 04:25:19;;;;;;;6.22;3.15;;;;;;;13.59;90.40;102028.75;5069644;28;20045;-68
2023/09/25 04:28:07;;;;;;;7.28;3.10;;;;;;;13.53;91.04;102031.69;5030006;28;20692;-66
2023/09/25 04:30:57;;;;;;;5.47;3.15;;;;;;;13.47;90.87;102028.09;5036035;28;20111;-66
2023/09/25 04:33:48;;;;;;;6.57;2.90;;;;;;;13.51;91.32;102034.69;5066735;28;20045;-68
2023/09/25 04:36:37;;;;;;;6.72;3.33;;;;;;;13.53;91.26;102032.53;5055879;28;20066;-66
2023/09/25 04:39:26;;;;;;;7.20;3.03;;;;;;;13.53;91.34;102038.00;5057589;28;20048;-66
2023/09/25 04:42:14;;;;;;;5.68;3.10;;;;;;;13.55;91.12;102040.47;5071324;28;20044;-67
2023/09/25 04:45:03;;;;;;;6.07;3.20;;;;;;;13.54;91.06;102044.28;5053751;28;20511;-67
2023/09/25 04:47:51;;;;;;;4.57;2.70;;;;;;;13.51;91.25;102047.56;5071094;28;20111;-67
2023/09/25 04:50:43;;;;;;;6.43;2.97;;;;;;;13.50;91.61;102043.19;5058242;28;20048;-67
2023/09/25 04:53:31;;;;;;;6.03;3.30;;;;;;;13.48;92.04;102046.16;5074930;28;20040;-67
2023/09/25 04:56:22;;;;;;;8.38;3.33;;;;;;;13.44;91.94;102039.53;5078323;28;20483;-68
2023/09/25 04:59:10;;;;;;;4.88;2.75;;;;;;;13.43;92.12;102043.38;5076644;28;20048;-67
2023/09/25 05:01:58;;;;;;;6.18;3.33;;;;;;;13.43;92.02;102038.72;5062381;28;20079;-67
2023/09/25 05:04:46;;;;;;;6.93;3.20;;;;;;;13.43;92.42;102041.44;5057401;28;20145;-68
2023/09/25 05:07:35;;;;;;;7.80;3.10;;;;;;;13.43;92.66;102035.16;5075211;28;20407;-67
2023/09/25 05:10:25;;;;;;;4.32;2.88;;;;;;;13.45;92.29;102035.72;5060851;28;20036;-67
2023/09/25 05:13:14;;;;;;;6.85;3.10;;;;;;;13.41;92.65;102037.31;5080314;28;20036;-67
2023/09/25 05:16:02;;;;;;;6.35;2.80;;;;;;;13.43;92.62;102037.91;5092672;28;20050;-67
2023/09/25 05:18:50;;;;;;;5.85;3.05;;;;;;;13.43;92.62;102038.72;5030819;28;20040;-67
2023/09/25 05:21:39;;;;;;;7.43;3.17;;;;;;;13.42;92.30;102047.16;5040593;28;20045;-67
2023/09/25 05:24:27;;;;;;;6.32;3.40;;;;;;;13.37;92.06;102038.91;5057044;28;20123;-67
2023/09/25 05:27:16;;;;;;;10.20;3.60;;;;;;;13.34;92.25;102039.44;5062251;28;20519;-67
2023/09/25 05:30:05;;;;;;;5.97;3.35;;;;;;;13.29;92.60;102048.41;5045908;28;20041;-67
2023/09/25 05:32:53;;;;;;;6.80;3.33;;;;;;;13.25;92.72;102049.16;5063265;28;20049;-67
2023/09/25 05:35:42;;;;;;;6.78;3.60;;;;;;;13.20;93.29;102048.03;5060839;28;20404;-67
2023/09/25 05:38:29;;;;;;;8.50;3.45;;;;;;;13.19;93.39;102053.75;5073416;28;20047;-67
2023/09/25 05:41:17;;;;;;;8.57;3.42;;;;;;;13.21;93.36;102057.88;5072776;28;20041;-67
2023/09/25 05:44:05;;;;;;;6.47;3.03;;;;;;;13.23;93.76;102052.16;5044802;28;20562;-67
2023/09/25 05:46:53;;;;;;;7.50;3.17;;;;;;;13.28;93.28;102062.38;5045596;28;20063;-68
2023/09/25 05:49:41;;;;;;;7.38;3.30;;;;;;;13.30;92.60;102065.66;5061683;28;20037;-67
2023/09/25 05:52:30;;;;;;;5.65;2.95;;;;;;;13.22;92.59;102059.50;4720781;28;10000357;-66
2023/09/25 05:55:18;;;;;;;6.05;3.30;;;;;;;13.20;93.79;102050.75;5036737;28;20417;-67
2023/09/25 05:58:07;;;;;;;6.75;3.05;;;;;;;13.25;93.87;102060.09;5052111;28;20084;-66
2023/09/25 06:00:55;;;;;;;6.63;3.47;;;;;;;13.29;93.52;102059.34;5038350;28;20057;-67
2023/09/25 06:03:43;;;;;;;6.28;3.50;;;;;;;13.30;93.23;102058.28;5053543;28;20059;-68
2023/09/25 06:06:33;;;;;;;6.22;3.30;;;;;;;13.32;93.68;102058.03;5054160;28;20601;-67
2023/09/25 06:09:21;;;;;;;6.03;3.33;;;;;;;13.33;93.51;102065.97;5069815;28;20572;-66
2023/09/25 06:12:11;;;;;;;7.18;3.30;;;;;;;13.32;93.53;102074.44;5042763;28;20323;-66
2023/09/25 06:14:59;;;;;;;8.43;3.30;;;;;;;13.33;93.45;102070.63;5069982;28;20118;-67
2023/09/25 06:17:47;;;;;;;5.60;3.15;;;;;;;13.33;93.55;102062.44;5056321;28;20155;-67
2023/09/25 06:20:39;;;;;;;7.22;3.30;;;;;;;13.35;92.92;102069.28;5055819;28;20105;-67
2023/09/25 06:23:27;;;;;;;6.22;3.22;;;;;;;13.32;93.30;102066.22;5051174;28;20045;-67
2023/09/25 06:26:15;;;;;;;9.05;3.10;;;;;;;13.35;94.18;102066.56;5063459;28;20094;-67
2023/09/25 06:29:11;;;;;;;8.43;3.63;;;;;;;13.37;93.21;102066.28;5069987;28;20059;-67
2023/09/25 06:31:59;;;;;;;6.20;3.35;;;;;;;13.36;93.34;102075.59;5042859;28;20150;-67
2023/09/25 06:34:49;;;;;;;6.47;3.45;;;;;;;13.35;93.46;102074.78;5069525;28;20036;-66
2023/09/25 06:37:37;;;;;;;7.05;3.25;;;;;;;13.40;93.36;102077.56;5087974;28;20044;-66
2023/09/25 06:40:27;;;;;;;6.53;3.40;;;;;;;13.41;93.34;102072.91;5072893;28;20055;-66
2023/09/25 06:43:15;;;;;;;6.93;3.38;;;;;;;13.44;93.10;102077.88;5061489;28;20703;-65
2023/09/25 06:46:03;;;;;;;6.95;2.97;;;;;;;13.44;93.95;102080.59;5057695;28;20067;-66
2023/09/25 06:48:51;;;;;;;6.63;3.45;;;;;;;13.48;93.70;102081.75;5057915;28;20037;-66
2023/09/25 06:51:40;;;;;;;7.15;3.50;;;;;;;13.50;93.29;102074.13;5047086;28;20040;-66
2023/09/25 06:54:28;;;;;;;6.13;3.20;;;;;;;13.51;93.26;102067.53;5094155;28;20040;-66
2023/09/25 06:57:16;;;;;;;7.13;3.40;;;;;;;13.52;92.66;102071.94;5075530;28;20130;-65
2023/09/25 07:00:05;;;;;;;8.48;3.58;;;;;;;13.51;93.57;102067.53;5038183;28;20627;-66
2023/09/25 07:02:53;;;;;;;7.00;3.30;;;;;;;13.53;93.55;102067.28;5072603;28;20059;-66
2023/09/25 07:05:42;;;;;;;7.05;3.55;;;;;;;13.56;93.47;102072.25;5073048;28;20052;-66
2023/09/25 07:08:30;;;;;;;7.63;3.30;;;;;;;13.56;93.77;102069.50;5072073;28;20420;-66
2023/09/25 07:11:19;;;;;;;5.97;3.50;;;;;;;13.58;93.75;102078.31;5056250;28;20044;-68
2023/09/25 07:14:07;;;;;;;9.50;4.05;;;;;;;13.58;93.51;102079.13;5058216;28;20056;-65
2023/09/25 07:16:55;;;;;;;7.07;3.75;;;;;;;13.60;93.81;102081.63;5045101;28;20492;-65
2023/09/25 07:19:43;;;;;;;6.93;3.60;;;;;;;13.61;93.79;102075.88;5073577;28;20063;-67
2023/09/25 07:22:31;;;;;;;7.28;3.72;;;;;;;13.62;94.10;102085.75;5087548;28;20503;-65
2023/09/25 07:25:19;;;;;;;7.70;3.83;;;;;;;13.63;94.25;102079.16;5058080;28;20103;-67
2023/09/25 07:28:07;;;;;;;6.95;3.38;;;;;;;13.68;93.96;102080.31;5071825;28;20055;-67
2023/09/25 07:30:56;;;;;;;7.72;3.50;;;;;;;13.72;93.83;102073.25;5056985;28;20048;-67
2023/09/25 07:33:44;;;;;;;7.97;3.53;;;;;;;13.77;94.05;102073.28;5055332;28;20130;-67
2023/09/25 07:36:32;;;;;;;11.02;3.60;;;;;;;13.83;94.44;102070.34;5058374;28;20063;-67
2023/09/25 07:39:22;;;;;;;7.28;3.70;;;;;;;13.91;93.90;102077.28;5057371;28;20384;-66
2023/09/25 07:42:12;;;;;;;5.43;3.35;;;;;;;13.97;93.92;102073.47;5072403;28;20049;-66
2023/09/25 07:45:00;;;;;;;9.52;3.60;;;;;;;14.00;93.75;102064.75;5058477;28;20036;-66
2023/09/25 07:47:48;;;;;;;7.47;3.78;;;;;;;14.04;93.68;102071.34;5071845;28;20408;-67
2023/09/25 07:50:36;;;;;;;8.48;4.05;;;;;;;14.09;92.64;102072.50;5041917;28;20052;-65
2023/09/25 07:53:28;;;;;;;9.10;3.80;;;;;;;14.10;92.68;102060.47;5077613;28;20040;-66
2023/09/25 07:56:16;;;;;;;6.65;3.70;;;;;;;14.15;92.45;102074.19;5063903;28;20063;-66
2023/09/25 07:59:04;;;;;;;8.57;3.60;;;;;;;14.19;92.55;102083.53;5038716;28;20518;-66
2023/09/25 08:01:55;;;;;;;11.00;3.90;;;;;;;14.22;92.09;102077.53;5039263;28;20057;-66
2023/09/25 08:04:44;;;;;;;8.85;3.80;;;;;;;14.25;92.12;102082.50;5052259;28;20049;-66
2023/09/25 08:07:32;;;;;;;8.13;3.50;;;;;;;14.29;91.55;102089.13;5071829;28;20048;-66
2023/09/25 08:10:20;;;;;;;9.25;3.40;;;;;;;14.31;90.94;102086.94;5042634;28;20067;-65
2023/09/25 08:13:10;;;;;;;9.13;4.25;;;;;;;14.37;90.90;102083.13;5072267;28;20149;-66
2023/09/25 08:16:05;;;;;;;11.80;3.67;;;;;;;14.40;89.93;102088.09;5054782;28;20135;-66
2023/09/25 08:18:53;;;;;;;6.05;3.35;;;;;;;14.43;89.82;102084.84;5057026;28;20041;-66
2023/09/25 08:21:41;;;;;;;7.72;3.58;;;;;;;14.47;89.26;102083.22;5030974;28;20044;-66
2023/09/25 08:24:29;;;;;;;7.95;3.65;;;;;;;14.51;88.70;102079.97;5059138;28;20045;-66
2023/09/25 08:27:19;;;;;;;9.13;3.53;;;;;;;14.54;88.84;102076.72;5070947;28;20127;-67
2023/09/25 08:30:08;;;;;;;7.40;3.70;;;;;;;14.57;87.82;102081.66;5079371;28;20129;-67
2023/09/25 08:32:56;;;;;;;9.27;3.70;;;;;;;14.60;87.78;102072.91;5067659;28;20561;-65
2023/09/25 08:35:44;;;;;;;6.18;3.50;;;;;;;14.63;87.59;102075.94;5066780;28;20059;-66
2023/09/25 08:38:32;;;;;;;9.32;3.38;;;;;;;14.65;87.91;102070.22;5073007;28;20416;-67
2023/09/25 08:41:21;;;;;;;6.05;3.22;;;;;;;14.67;87.38;102068.84;5062461;28;20041;-67
2023/09/25 08:44:10;;;;;;;5.70;3.15;;;;;;;14.73;87.82;102068.88;5075481;28;20053;-66
2023/09/25 08:46:58;;;;;;;6.60;3.25;;;;;;;14.77;87.98;102070.84;5061186;28;20514;-66
2023/09/25 08:49:51;;;;;;;7.90;3.53;;;;;;;14.79;87.30;102060.41;5076131;28;20048;-67
2023/09/25 08:52:39;;;;;;;8.25;3.60;;;;;;;14.82;86.62;102064.56;5051614;28;20040;-66
2023/09/25 08:55:28;;;;;;;9.70;3.90;;;;;;;14.85;86.50;102053.03;5053325;28;20093;-66
2023/09/25 08:58:16;;;;;;;7.25;3.80;;;;;;;14.90;86.98;102059.34;5041254;28;20126;-67
2023/09/25 09:01:04;;;;;;;16.42;5.15;;;;;;;14.99;87.70;102058.88;5053667;28;20492;-66
2023/09/25 09:03:53;;;;;;;9.68;3.72;;;;;;;15.03;86.23;102057.22;5096964;28;20056;-66
2023/09/25 09:06:41;;;;;;;6.65;3.35;;;;;;;15.06;85.81;102067.69;5074625;28;20072;-66
2023/09/25 09:09:29;;;;;;;6.78;3.50;;;;;;;15.09;85.90;102061.66;5056318;28;20125;-66
2023/09/25 09:12:17;;;;;;;6.32;3.42;;;;;;;15.17;85.56;102055.63;5064091;28;20044;-67
2023/09/25 09:15:06;;;;;;;7.43;3.75;;;;;;;15.24;85.75;102056.22;5059764;28;20136;-66
2023/09/25 09:17:55;;;;;;;6.38;3.10;;;;;;;15.26;85.05;102048.53;5060855;28;20049;-66
2023/09/25 09:20:44;;;;;;;7.63;3.70;;;;;;;15.32;84.76;102060.34;5074744;28;20063;-67
2023/09/25 09:23:42;;;;;;;10.40;4.32;;;;;;;15.36;85.59;102053.22;5061150;28;20519;-66
2023/09/25 09:26:31;;;;;;;7.20;3.45;;;;;;;15.40;86.05;102050.78;5061375;28;20045;-66
2023/09/25 09:29:19;;;;;;;9.02;3.42;;;;;;;15.41;85.18;102044.19;5064876;28;20072;-66
2023/09/25 09:32:08;;;;;;;7.13;3.10;;;;;;;15.44;84.40;102043.63;5075457;28;20048;-66
2023/09/25 09:34:58;;;;;;;6.50;3.03;;;;;;;15.44;84.81;102041.75;5061293;28;20060;-67
2023/09/25 09:37:48;;;;;;;7.43;3.50;;;;;;;15.47;85.60;102045.88;5073098;28;20499;-66
2023/09/25 09:40:36;;;;;;;11.85;3.90;;;;;;;15.49;85.85;102054.63;5058697;28;20102;-66
2023/09/25 09:43:25;;;;;;;7.15;3.30;;;;;;;15.53;86.25;102047.50;5087460;28;20048;-68
2023/09/25 09:46:14;;;;;;;10.13;4.10;;;;;;;15.54;86.71;102049.19;5080273;28;20044;-67
2023/09/25 09:49:02;;;;;;;10.95;4.20;;;;;;;15.60;87.74;102053.56;5085609;28;20040;-67
2023/09/25 09:51:51;;;;;;;9.50;3.88;;;;;;;15.64;87.98;102059.34;5079586;28;20051;-66
2023/09/25 09:54:43;;;;;;;11.02;4.50;;;;;;;15.71;90.78;102055.28;5080369;28;20044;-66
2023/09/25 09:57:31;;;;;;;8.80;3.42;;;;;;;15.71;87.21;102051.72;5080037;28;20488;-67
2023/09/25 10:00:19;;;;;;;9.65;4.10;;;;;;;15.80;90.03;102063.78;5067903;28;20047;-67
2023/09/25 10:03:08;;;;;;;9.15;4.00;;;;;;;15.83;88.45;102063.25;5031384;28;20826;-68
2023/09/25 10:05:56;;;;;;;5.65;3.10;;;;;;;15.83;87.63;102073.44;5032210;28;20045;-67
2023/09/25 10:09:08;;;;;;;8.48;3.53;;;;;;;15.91;87.08;102067.38;5074941;28;20048;-67
2023/09/25 10:11:58;;;;;;;8.45;3.50;;;;;;;15.94;86.66;102069.59;5055009;28;20056;-68
2023/09/25 10:14:50;;;;;;;8.20;3.40;;;;;;;15.95;87.52;102068.50;5039821;28;20072;-67
2023/09/25 10:17:48;;;;;;;7.22;3.40;;;;;;;16.00;86.67;102062.19;5056788;28;20266;-66
2023/09/25 10:20:40;;;;;;;10.18;3.50;;;;;;;16.03;86.77;102058.88;5063532;28;20071;-67
2023/09/25 10:23:29;;;;;;;5.38;2.78;;;;;;;16.07;86.81;102052.56;5055317;28;20044;-66
2023/09/25 10:26:21;;;;;;;6.13;3.08;;;;;;;16.11;85.64;102048.13;5053778;28;20049;-66
2023/09/25 10:29:14;;;;;;;7.90;3.10;;;;;;;16.12;86.28;102044.31;5061593;28;20113;-67
2023/09/25 10:32:04;;;;;;;10.43;3.30;;;;;;;16.15;86.14;102046.50;5071064;28;20405;-68
2023/09/25 10:34:52;;;;;;;11.80;3.65;;;;;;;16.19;86.97;102039.34;5060292;28;20114;-67
2023/09/25 10:38:08;;;;;;;43.80;32.03;;;;;;;16.28;87.39;102047.03;5059424;28;20052;-67
2023/09/25 10:41:16;;;;;;;17.25;12.25;;;;;;;16.32;86.72;102065.47;5069105;28;20048;-67
2023/09/25 10:44:05;;;;;;;10.43;6.57;;;;;;;16.35;86.16;102064.09;5066957;28;20048;-67
2023/09/25 10:46:53;;;;;;;21.58;15.60;;;;;;;16.41;86.74;102065.75;5053098;28;20048;-67
2023/09/25 10:49:41;;;;;;;11.57;6.05;;;;;;;16.47;86.76;102061.88;5063230;28;20064;-67
2023/09/25 10:52:29;;;;;;;14.13;8.25;;;;;;;16.49;86.56;102058.84;5050588;28;20080;-67
2023/09/25 10:55:17;;;;;;;26.83;18.38;;;;;;;16.51;85.95;102051.97;5060080;28;20059;-68
2023/09/25 10:58:06;;;;;;;62.72;42.80;;;;;;;16.54;88.18;102045.06;5032491;28;20045;-68
2023/09/25 11:00:55;;;;;;;51.88;40.83;;;;;;;16.58;90.39;102040.69;4354888;28;10001277;-67
2023/09/25 11:03:43;;;;;;;37.70;24.92;;;;;;;16.58;88.48;102041.50;5051946;28;20119;-68
2023/09/25 11:06:32;;;;;;;37.65;28.15;;;;;;;16.64;89.01;102038.72;5053378;28;20044;-68
2023/09/25 11:09:20;;;;;;;69.32;49.42;;;;;;;16.71;91.30;102050.25;5046975;28;20048;-67
2023/09/25 11:12:08;;;;;;;41.63;29.65;;;;;;;16.75;91.09;102056.88;5053401;28;20056;-67
2023/09/25 11:14:57;;;;;;;103.75;73.95;;;;;;;16.76;92.23;102053.84;5055070;28;20520;-68
2023/09/25 11:17:45;;;;;;;46.97;33.97;;;;;;;16.77;91.91;102055.47;5054396;28;20059;-67
2023/09/25 11:20:34;;;;;;;20.58;11.35;;;;;;;16.78;89.09;102057.16;5074503;28;20051;-67
2023/09/25 11:23:22;;;;;;;13.68;7.72;;;;;;;16.80;87.77;102062.38;5054282;28;20048;-66
2023/09/25 11:26:11;;;;;;;32.72;23.58;;;;;;;16.84;89.54;102060.72;5056384;28;20051;-66
2023/09/25 11:28:59;;;;;;;36.47;26.63;;;;;;;16.88;90.74;102064.56;5074829;28;20052;-67
2023/09/25 11:31:47;;;;;;;48.70;35.58;;;;;;;16.93;90.80;102060.97;5089204;28;20531;-66
2023/09/25 11:34:49;;;;;;;18.80;13.52;;;;;;;16.96;89.79;102063.19;5060214;28;20523;-67
2023/09/25 11:37:57;;;;;;;17.42;12.32;;;;;;;16.98;88.88;102059.03;5069645;28;20657;-66
2023/09/25 11:40:46;;;;;;;37.47;26.05;;;;;;;17.01;90.27;102061.22;5092979;28;20133;-66
2023/09/25 11:43:35;;;;;;;28.23;19.15;;;;;;;17.04;89.59;102060.63;5080323;28;20181;-66
2023/09/25 11:46:23;;;;;;;25.70;17.45;;;;;;;17.09;91.13;102053.47;5038504;28;20041;-68
2023/09/25 11:49:12;;;;;;;31.90;22.60;;;;;;;17.13;90.02;102058.16;5038960;28;20045;-68
2023/09/25 11:52:00;;;;;;;17.52;10.43;;;;;;;17.20;87.27;102055.09;5038019;28;20240;-66
2023/09/25 11:54:48;;;;;;;61.92;42.15;;;;;;;17.29;91.97;102061.63;5071530;28;20052;-66
2023/09/25 11:57:42;;;;;;;90.30;66.65;;;;;;;17.36;95.47;102056.63;5084777;28;20052;-66
2023/09/25 12:00:30;;;;;;;44.90;33.35;;;;;;;17.39;95.23;102056.09;5093354;28;20051;-66
2023/09/25 12:03:18;;;;;;;47.65;33.17;;;;;;;17.39;91.62;102055.25;5089922;28;20056;-66
2023/09/25 12:06:07;;;;;;;12.50;8.00;;;;;;;17.40;89.02;102060.47;5044677;28;20548;-68
2023/09/25 12:08:55;;;;;;;53.70;38.30;;;;;;;17.52;92.56;102062.09;5057365;28;20113;-67
2023/09/25 12:11:43;;;;;;;34.22;24.65;;;;;;;17.46;89.83;102067.63;5072103;28;20079;-66
2023/09/25 12:14:32;;;;;;;7.13;3.53;;;;;;;17.44;86.21;102066.25;5056674;28;20045;-66
2023/09/25 12:17:20;;;;;;;11.27;4.63;;;;;;;17.46;86.65;102072.28;5070040;28;20044;-67
2023/09/25 12:20:15;;;;;;;26.33;15.95;;;;;;;17.53;88.64;102066.47;5053381;28;20063;-66
2023/09/25 12:23:03;;;;;;;29.23;19.55;;;;;;;17.57;89.93;102079.41;5051686;28;20053;-67
2023/09/25 12:25:54;;;;;;;20.73;13.75;;;;;;;17.57;87.83;102070.31;5042299;28;20500;-66
2023/09/25 12:28:43;;;;;;;25.77;18.58;;;;;;;17.66;89.49;102077.69;5068471;28;20102;-67
2023/09/25 12:31:31;;;;;;;13.07;8.75;;;;;;;17.71;87.86;102079.59;5057082;28;20056;-67
2023/09/25 12:34:20;;;;;;;33.67;22.33;;;;;;;17.74;86.56;102081.78;5043377;28;20086;-68
2023/09/25 12:37:08;;;;;;;7.82;3.40;;;;;;;17.76;82.14;102081.50;5055329;28;20132;-67
2023/09/25 12:39:56;;;;;;;24.88;17.90;;;;;;;17.79;87.46;102078.97;5055800;28;20044;-67
2023/09/25 12:42:45;;;;;;;16.35;9.50;;;;;;;17.80;85.69;102082.59;5056174;28;20052;-66
2023/09/25 12:45:42;;;;;;;8.10;3.67;;;;;;;17.78;82.84;102080.09;5063303;28;20070;-67
2023/09/25 12:48:31;;;;;;;24.23;17.70;;;;;;;17.77;84.43;102074.88;5041715;28;20404;-67
2023/09/25 12:51:19;;;;;;;29.58;20.10;;;;;;;17.86;89.99;102074.00;5070280;28;20040;-66
2023/09/25 12:54:07;;;;;;;9.45;4.95;;;;;;;17.88;85.14;102074.53;5039320;28;20055;-66
2023/09/25 12:56:56;;;;;;;12.73;7.03;;;;;;;17.88;81.38;102069.03;5040099;28;20061;-66
2023/09/25 12:59:45;;;;;;;4.43;2.70;;;;;;;17.90;80.09;102070.69;5030813;28;20504;-68
2023/09/25 13:02:33;;;;;;;8.70;3.58;;;;;;;17.91;81.05;102075.09;5054714;28;20494;-67